sensor_id;sensor_type;location;lat;lon;timestamp;P1;durP1;ratioP1;P2;durP2;ratioP2
21507;SDS011;10915;54.352;9.074;2023-07-28T00:00:34;11.47;;;10.17;;
21507;SDS011;10915;54.352;9.074;2023-07-28T00:03:00;15.90;;;12.13;;
21507;SDS011;10915;54.352;9.074;2023-07-28T00:05:25;14.33;;;12.83;;
21507;SDS011;10915;54.352;9.074;2023-07-28T00:07:51;12.73;;;11.43;;
21507;SDS011;10915;54.352;9.074;2023-07-28T00:10:17;13.50;;;10.97;;
21507;SDS011;10915;54.352;9.074;2023-07-28T00:12:43;12.17;;;10.70;;
21507;SDS011;10915;54.352;9.074;2023-07-28T00:15:09;14.67;;;12.83;;
21507;SDS011;10915;54.352;9.074;2023-07-28T00:17:34;15.03;;;13.50;;
21507;SDS011;10915;54.352;9.074;2023-07-28T00:20:00;16.27;;;14.57;;
21507;SDS011;10915;54.352;9.074;2023-07-28T00:22:26;15.27;;;12.97;;
21507;SDS011;10915;54.352;9.074;2023-07-28T00:24:52;16.53;;;14.70;;
21507;SDS011;10915;54.352;9.074;2023-07-28T00:27:17;16.23;;;14.27;;
21507;SDS011;10915;54.352;9.074;2023-07-28T00:29:43;16.73;;;14.97;;
21507;SDS011;10915;54.352;9.074;2023-07-28T00:32:09;18.17;;;14.30;;
21507;SDS011;10915;54.352;9.074;2023-07-28T00:34:34;17.73;;;15.17;;
21507;SDS011;10915;54.352;9.074;2023-07-28T00:37:00;17.27;;;14.60;;
21507;SDS011;10915;54.352;9.074;2023-07-28T00:39:25;16.90;;;15.20;;
21507;SDS011;10915;54.352;9.074;2023-07-28T00:41:51;16.50;;;14.90;;
21507;SDS011;10915;54.352;9.074;2023-07-28T00:44:17;18.50;;;15.87;;
21507;SDS011;10915;54.352;9.074;2023-07-28T00:46:43;20.77;;;17.23;;
21507;SDS011;10915;54.352;9.074;2023-07-28T00:49:09;24.90;;;18.57;;
21507;SDS011;10915;54.352;9.074;2023-07-28T00:51:35;22.53;;;17.30;;
21507;SDS011;10915;54.352;9.074;2023-07-28T00:54:02;20.67;;;16.97;;
21507;SDS011;10915;54.352;9.074;2023-07-28T00:56:30;18.40;;;16.37;;
21507;SDS011;10915;54.352;9.074;2023-07-28T00:58:56;16.40;;;14.50;;
21507;SDS011;10915;54.352;9.074;2023-07-28T01:01:22;17.60;;;15.70;;
21507;SDS011;10915;54.352;9.074;2023-07-28T01:03:48;21.50;;;18.87;;
21507;SDS011;10915;54.352;9.074;2023-07-28T01:09:02;25.90;;;21.97;;
21507;SDS011;10915;54.352;9.074;2023-07-28T01:11:34;25.70;;;22.23;;
21507;SDS011;10915;54.352;9.074;2023-07-28T01:14:00;25.53;;;22.73;;
21507;SDS011;10915;54.352;9.074;2023-07-28T01:16:25;27.03;;;21.80;;
21507;SDS011;10915;54.352;9.074;2023-07-28T01:18:51;24.20;;;21.53;;
21507;SDS011;10915;54.352;9.074;2023-07-28T01:21:20;30.53;;;23.53;;
21507;SDS011;10915;54.352;9.074;2023-07-28T01:26:51;27.47;;;23.93;;
21507;SDS011;10915;54.352;9.074;2023-07-28T01:29:17;27.47;;;23.17;;
21507;SDS011;10915;54.352;9.074;2023-07-28T01:31:45;27.43;;;23.40;;
21507;SDS011;10915;54.352;9.074;2023-07-28T01:34:12;25.80;;;23.00;;
21507;SDS011;10915;54.352;9.074;2023-07-28T01:36:38;31.40;;;24.87;;
21507;SDS011;10915;54.352;9.074;2023-07-28T01:39:04;27.80;;;22.83;;
21507;SDS011;10915;54.352;9.074;2023-07-28T01:41:29;27.33;;;23.93;;
21507;SDS011;10915;54.352;9.074;2023-07-28T01:43:55;29.03;;;23.60;;
21507;SDS011;10915;54.352;9.074;2023-07-28T01:46:20;27.83;;;23.40;;
21507;SDS011;10915;54.352;9.074;2023-07-28T01:48:47;27.37;;;23.57;;
21507;SDS011;10915;54.352;9.074;2023-07-28T01:51:13;27.70;;;23.57;;
21507;SDS011;10915;54.352;9.074;2023-07-28T01:53:38;32.60;;;24.67;;
21507;SDS011;10915;54.352;9.074;2023-07-28T01:56:04;32.43;;;24.40;;
21507;SDS011;10915;54.352;9.074;2023-07-28T01:58:29;31.10;;;24.37;;
21507;SDS011;10915;54.352;9.074;2023-07-28T02:00:55;29.80;;;24.50;;
21507;SDS011;10915;54.352;9.074;2023-07-28T02:03:20;31.23;;;23.57;;
21507;SDS011;10915;54.352;9.074;2023-07-28T02:05:46;28.80;;;22.93;;
21507;SDS011;10915;54.352;9.074;2023-07-28T02:08:12;28.57;;;23.47;;
21507;SDS011;10915;54.352;9.074;2023-07-28T02:10:37;21.97;;;16.83;;
21507;SDS011;10915;54.352;9.074;2023-07-28T02:13:03;27.80;;;22.97;;
21507;SDS011;10915;54.352;9.074;2023-07-28T02:15:29;28.93;;;23.37;;
21507;SDS011;10915;54.352;9.074;2023-07-28T02:17:54;26.83;;;22.47;;
21507;SDS011;10915;54.352;9.074;2023-07-28T02:20:20;26.97;;;22.50;;
21507;SDS011;10915;54.352;9.074;2023-07-28T02:22:46;30.67;;;23.60;;
21507;SDS011;10915;54.352;9.074;2023-07-28T02:25:12;36.60;;;24.80;;
21507;SDS011;10915;54.352;9.074;2023-07-28T02:27:37;29.33;;;23.37;;
21507;SDS011;10915;54.352;9.074;2023-07-28T02:48:29;28.87;;;22.60;;
21507;SDS011;10915;54.352;9.074;2023-07-28T03:31:26;38.13;;;24.93;;
21507;SDS011;10915;54.352;9.074;2023-07-28T03:34:41;43.50;;;27.67;;
21507;SDS011;10915;54.352;9.074;2023-07-28T04:33:23;35.90;;;25.57;;
21507;SDS011;10915;54.352;9.074;2023-07-28T05:14:12;28.67;;;23.17;;
21507;SDS011;10915;54.352;9.074;2023-07-28T05:17:20;27.37;;;22.30;;
21507;SDS011;10915;54.352;9.074;2023-07-28T05:20:39;27.60;;;21.70;;
21507;SDS011;10915;54.352;9.074;2023-07-28T09:42:33;1.40;;;1.10;;
21507;SDS011;10915;54.352;9.074;2023-07-28T09:45:00;1.83;;;1.07;;
21507;SDS011;10915;54.352;9.074;2023-07-28T09:47:25;1.83;;;1.30;;
21507;SDS011;10915;54.352;9.074;2023-07-28T09:49:54;1.73;;;1.20;;
21507;SDS011;10915;54.352;9.074;2023-07-28T09:52:23;4.00;;;1.53;;
21507;SDS011;10915;54.352;9.074;2023-07-28T09:54:52;2.57;;;1.20;;
21507;SDS011;10915;54.352;9.074;2023-07-28T09:57:21;2.43;;;0.90;;
21507;SDS011;10915;54.352;9.074;2023-07-28T09:59:49;2.20;;;1.60;;
21507;SDS011;10915;54.352;9.074;2023-07-28T10:02:19;2.93;;;1.30;;
21507;SDS011;10915;54.352;9.074;2023-07-28T10:04:45;1.30;;;1.00;;
21507;SDS011;10915;54.352;9.074;2023-07-28T10:07:11;3.67;;;1.50;;
21507;SDS011;10915;54.352;9.074;2023-07-28T10:09:37;2.00;;;1.30;;
21507;SDS011;10915;54.352;9.074;2023-07-28T10:12:04;1.33;;;1.20;;
21507;SDS011;10915;54.352;9.074;2023-07-28T10:14:31;2.10;;;1.50;;
21507;SDS011;10915;54.352;9.074;2023-07-28T10:17:00;3.83;;;1.30;;
21507;SDS011;10915;54.352;9.074;2023-07-28T10:19:31;1.33;;;1.10;;
21507;SDS011;10915;54.352;9.074;2023-07-28T10:22:06;1.70;;;1.13;;
21507;SDS011;10915;54.352;9.074;2023-07-28T10:30:03;3.20;;;1.47;;
21507;SDS011;10915;54.352;9.074;2023-07-28T10:32:36;1.73;;;1.03;;
21507;SDS011;10915;54.352;9.074;2023-07-28T10:37:43;1.20;;;1.03;;
21507;SDS011;10915;54.352;9.074;2023-07-28T10:42:55;5.37;;;1.03;;
21507;SDS011;10915;54.352;9.074;2023-07-28T10:45:25;1.97;;;1.20;;
21507;SDS011;10915;54.352;9.074;2023-07-28T10:47:52;1.00;;;0.77;;
21507;SDS011;10915;54.352;9.074;2023-07-28T10:50:20;1.70;;;1.30;;
21507;SDS011;10915;54.352;9.074;2023-07-28T10:52:47;2.63;;;0.83;;
21507;SDS011;10915;54.352;9.074;2023-07-28T10:55:13;2.23;;;1.10;;
21507;SDS011;10915;54.352;9.074;2023-07-28T10:57:40;1.57;;;0.90;;
21507;SDS011;10915;54.352;9.074;2023-07-28T11:00:07;1.20;;;1.07;;
21507;SDS011;10915;54.352;9.074;2023-07-28T11:02:36;1.57;;;0.97;;
21507;SDS011;10915;54.352;9.074;2023-07-28T11:05:09;1.30;;;1.00;;
21507;SDS011;10915;54.352;9.074;2023-07-28T11:07:55;2.10;;;1.10;;
21507;SDS011;10915;54.352;9.074;2023-07-28T11:10:22;1.90;;;1.00;;
21507;SDS011;10915;54.352;9.074;2023-07-28T11:12:49;1.00;;;0.90;;
21507;SDS011;10915;54.352;9.074;2023-07-28T11:15:17;0.87;;;0.80;;
21507;SDS011;10915;54.352;9.074;2023-07-28T11:17:45;1.47;;;0.80;;
21507;SDS011;10915;54.352;9.074;2023-07-28T11:20:21;1.87;;;0.73;;
21507;SDS011;10915;54.352;9.074;2023-07-28T11:25:20;1.00;;;0.90;;
21507;SDS011;10915;54.352;9.074;2023-07-28T11:27:46;1.27;;;0.90;;
21507;SDS011;10915;54.352;9.074;2023-07-28T11:30:13;2.90;;;0.80;;
21507;SDS011;10915;54.352;9.074;2023-07-28T11:32:42;2.90;;;0.83;;
21507;SDS011;10915;54.352;9.074;2023-07-28T11:35:09;1.73;;;0.73;;
21507;SDS011;10915;54.352;9.074;2023-07-28T11:37:37;2.03;;;1.20;;
21507;SDS011;10915;54.352;9.074;2023-07-28T11:40:04;2.90;;;1.07;;
21507;SDS011;10915;54.352;9.074;2023-07-28T11:42:39;2.27;;;1.20;;
21507;SDS011;10915;54.352;9.074;2023-07-28T11:45:08;1.30;;;1.13;;
21507;SDS011;10915;54.352;9.074;2023-07-28T11:47:35;1.60;;;1.10;;
21507;SDS011;10915;54.352;9.074;2023-07-28T11:50:00;2.53;;;1.00;;
21507;SDS011;10915;54.352;9.074;2023-07-28T11:52:33;1.53;;;1.13;;
21507;SDS011;10915;54.352;9.074;2023-07-28T11:55:02;1.17;;;0.90;;
21507;SDS011;10915;54.352;9.074;2023-07-28T11:57:30;2.97;;;1.33;;
21507;SDS011;10915;54.352;9.074;2023-07-28T11:59:56;1.20;;;1.00;;
21507;SDS011;10915;54.352;9.074;2023-07-28T12:02:26;2.13;;;1.37;;
21507;SDS011;10915;54.352;9.074;2023-07-28T12:04:52;1.07;;;0.97;;
21507;SDS011;10915;54.352;9.074;2023-07-28T12:07:20;3.83;;;1.43;;
21507;SDS011;10915;54.352;9.074;2023-07-28T12:09:53;1.40;;;0.97;;
21507;SDS011;10915;54.352;9.074;2023-07-28T12:12:23;1.70;;;1.20;;
21507;SDS011;10915;54.352;9.074;2023-07-28T12:14:51;2.63;;;1.13;;
21507;SDS011;10915;54.352;9.074;2023-07-28T12:17:18;1.20;;;0.90;;
21507;SDS011;10915;54.352;9.074;2023-07-28T12:22:42;1.57;;;0.93;;
21507;SDS011;10915;54.352;9.074;2023-07-28T12:25:09;1.13;;;0.90;;
21507;SDS011;10915;54.352;9.074;2023-07-28T12:27:36;1.23;;;1.13;;
21507;SDS011;10915;54.352;9.074;2023-07-28T12:30:02;1.73;;;1.40;;
21507;SDS011;10915;54.352;9.074;2023-07-28T12:32:29;1.10;;;1.00;;
21507;SDS011;10915;54.352;9.074;2023-07-28T12:34:54;1.30;;;1.20;;
21507;SDS011;10915;54.352;9.074;2023-07-28T12:37:20;1.20;;;1.10;;
21507;SDS011;10915;54.352;9.074;2023-07-28T12:39:46;1.73;;;0.90;;
21507;SDS011;10915;54.352;9.074;2023-07-28T12:42:13;1.63;;;1.10;;
21507;SDS011;10915;54.352;9.074;2023-07-28T12:44:40;1.17;;;0.90;;
21507;SDS011;10915;54.352;9.074;2023-07-28T12:47:06;1.10;;;1.00;;
21507;SDS011;10915;54.352;9.074;2023-07-28T12:49:32;1.00;;;0.80;;
21507;SDS011;10915;54.352;9.074;2023-07-28T12:51:59;1.10;;;1.00;;
21507;SDS011;10915;54.352;9.074;2023-07-28T12:54:26;1.33;;;1.07;;
21507;SDS011;10915;54.352;9.074;2023-07-28T12:56:53;1.07;;;0.97;;
21507;SDS011;10915;54.352;9.074;2023-07-28T12:59:19;1.10;;;0.80;;
21507;SDS011;10915;54.352;9.074;2023-07-28T13:01:45;1.17;;;0.83;;
21507;SDS011;10915;54.352;9.074;2023-07-28T13:04:10;1.00;;;0.90;;
21507;SDS011;10915;54.352;9.074;2023-07-28T13:06:36;1.10;;;0.53;;
21507;SDS011;10915;54.352;9.074;2023-07-28T13:09:02;1.27;;;1.00;;
21507;SDS011;10915;54.352;9.074;2023-07-28T13:11:28;0.77;;;0.77;;
21507;SDS011;10915;54.352;9.074;2023-07-28T13:13:54;0.70;;;0.60;;
21507;SDS011;10915;54.352;9.074;2023-07-28T13:16:20;0.57;;;0.57;;
21507;SDS011;10915;54.352;9.074;2023-07-28T13:18:46;3.50;;;1.20;;
21507;SDS011;10915;54.352;9.074;2023-07-28T13:21:12;1.10;;;1.00;;
21507;SDS011;10915;54.352;9.074;2023-07-28T13:23:38;1.13;;;0.90;;
21507;SDS011;10915;54.352;9.074;2023-07-28T13:26:04;2.97;;;1.10;;
21507;SDS011;10915;54.352;9.074;2023-07-28T13:28:30;0.97;;;0.97;;
21507;SDS011;10915;54.352;9.074;2023-07-28T13:30:56;2.37;;;1.30;;
21507;SDS011;10915;54.352;9.074;2023-07-28T13:33:21;2.67;;;1.40;;
21507;SDS011;10915;54.352;9.074;2023-07-28T13:35:47;2.43;;;1.77;;
21507;SDS011;10915;54.352;9.074;2023-07-28T13:38:13;1.70;;;1.60;;
21507;SDS011;10915;54.352;9.074;2023-07-28T13:40:39;2.40;;;1.53;;
21507;SDS011;10915;54.352;9.074;2023-07-28T13:43:04;4.10;;;2.00;;
21507;SDS011;10915;54.352;9.074;2023-07-28T13:45:30;3.03;;;2.13;;
21507;SDS011;10915;54.352;9.074;2023-07-28T13:47:56;2.50;;;1.97;;
21507;SDS011;10915;54.352;9.074;2023-07-28T13:50:21;3.10;;;2.00;;
21507;SDS011;10915;54.352;9.074;2023-07-28T13:52:47;2.10;;;1.70;;
21507;SDS011;10915;54.352;9.074;2023-07-28T13:55:13;2.73;;;1.90;;
21507;SDS011;10915;54.352;9.074;2023-07-28T13:57:39;2.80;;;2.20;;
21507;SDS011;10915;54.352;9.074;2023-07-28T14:00:05;2.80;;;2.03;;
21507;SDS011;10915;54.352;9.074;2023-07-28T14:02:35;2.87;;;2.17;;
21507;SDS011;10915;54.352;9.074;2023-07-28T14:05:01;5.10;;;2.10;;
21507;SDS011;10915;54.352;9.074;2023-07-28T14:07:27;2.53;;;1.87;;
21507;SDS011;10915;54.352;9.074;2023-07-28T14:09:53;1.60;;;1.40;;
21507;SDS011;10915;54.352;9.074;2023-07-28T14:12:18;1.33;;;1.10;;
21507;SDS011;10915;54.352;9.074;2023-07-28T14:14:44;1.80;;;1.57;;
21507;SDS011;10915;54.352;9.074;2023-07-28T14:17:10;2.20;;;1.67;;
21507;SDS011;10915;54.352;9.074;2023-07-28T14:19:38;1.87;;;1.60;;
21507;SDS011;10915;54.352;9.074;2023-07-28T14:22:04;2.10;;;1.23;;
21507;SDS011;10915;54.352;9.074;2023-07-28T14:24:30;1.70;;;1.27;;
21507;SDS011;10915;54.352;9.074;2023-07-28T14:26:56;1.57;;;1.07;;
21507;SDS011;10915;54.352;9.074;2023-07-28T14:29:21;1.50;;;0.97;;
21507;SDS011;10915;54.352;9.074;2023-07-28T14:31:47;0.57;;;0.53;;
21507;SDS011;10915;54.352;9.074;2023-07-28T14:34:13;0.67;;;0.60;;
21507;SDS011;10915;54.352;9.074;2023-07-28T14:36:39;1.07;;;0.83;;
21507;SDS011;10915;54.352;9.074;2023-07-28T14:39:04;1.30;;;0.67;;
21507;SDS011;10915;54.352;9.074;2023-07-28T14:41:31;1.53;;;0.90;;
21507;SDS011;10915;54.352;9.074;2023-07-28T14:43:56;3.10;;;1.10;;
21507;SDS011;10915;54.352;9.074;2023-07-28T14:46:22;1.20;;;1.10;;
21507;SDS011;10915;54.352;9.074;2023-07-28T14:48:49;1.60;;;0.90;;
21507;SDS011;10915;54.352;9.074;2023-07-28T14:51:18;1.40;;;1.27;;
21507;SDS011;10915;54.352;9.074;2023-07-28T14:53:44;1.63;;;1.23;;
21507;SDS011;10915;54.352;9.074;2023-07-28T14:56:13;1.10;;;0.90;;
21507;SDS011;10915;54.352;9.074;2023-07-28T14:58:39;2.20;;;1.17;;
21507;SDS011;10915;54.352;9.074;2023-07-28T15:01:06;1.33;;;1.10;;
21507;SDS011;10915;54.352;9.074;2023-07-28T15:03:32;1.90;;;1.20;;
21507;SDS011;10915;54.352;9.074;2023-07-28T15:05:59;4.97;;;3.07;;
21507;SDS011;10915;54.352;9.074;2023-07-28T15:08:26;3.07;;;2.70;;
21507;SDS011;10915;54.352;9.074;2023-07-28T15:10:52;2.13;;;1.87;;
21507;SDS011;10915;54.352;9.074;2023-07-28T15:13:18;4.03;;;2.67;;
21507;SDS011;10915;54.352;9.074;2023-07-28T15:15:44;3.37;;;3.07;;
21507;SDS011;10915;54.352;9.074;2023-07-28T15:18:10;2.57;;;2.00;;
21507;SDS011;10915;54.352;9.074;2023-07-28T15:20:36;1.50;;;1.40;;
21507;SDS011;10915;54.352;9.074;2023-07-28T15:23:02;2.20;;;1.73;;
21507;SDS011;10915;54.352;9.074;2023-07-28T15:25:27;2.30;;;2.00;;
21507;SDS011;10915;54.352;9.074;2023-07-28T15:27:53;2.30;;;1.53;;
21507;SDS011;10915;54.352;9.074;2023-07-28T15:30:19;1.90;;;1.80;;
21507;SDS011;10915;54.352;9.074;2023-07-28T15:32:45;2.73;;;1.50;;
21507;SDS011;10915;54.352;9.074;2023-07-28T15:35:10;2.07;;;1.00;;
21507;SDS011;10915;54.352;9.074;2023-07-28T15:37:36;1.53;;;0.93;;
21507;SDS011;10915;54.352;9.074;2023-07-28T15:40:03;1.37;;;1.10;;
21507;SDS011;10915;54.352;9.074;2023-07-28T15:42:30;1.47;;;1.17;;
21507;SDS011;10915;54.352;9.074;2023-07-28T15:44:55;0.93;;;0.83;;
21507;SDS011;10915;54.352;9.074;2023-07-28T16:07:04;3.63;;;2.37;;
21507;SDS011;10915;54.352;9.074;2023-07-28T16:45:28;1.00;;;0.90;;
21507;SDS011;10915;54.352;9.074;2023-07-28T17:04:33;1.30;;;0.90;;
21507;SDS011;10915;54.352;9.074;2023-07-28T17:37:33;0.83;;;0.70;;
21507;SDS011;10915;54.352;9.074;2023-07-28T17:59:01;1.57;;;1.07;;
21507;SDS011;10915;54.352;9.074;2023-07-28T18:17:58;1.33;;;1.10;;
21507;SDS011;10915;54.352;9.074;2023-07-28T18:43:50;3.80;;;1.50;;
21507;SDS011;10915;54.352;9.074;2023-07-28T21:23:57;5.57;;;3.60;;
21507;SDS011;10915;54.352;9.074;2023-07-28T21:30:31;4.47;;;3.37;;
21507;SDS011;10915;54.352;9.074;2023-07-28T21:33:05;5.10;;;3.80;;
21507;SDS011;10915;54.352;9.074;2023-07-28T21:48:34;8.60;;;4.60;;
21507;SDS011;10915;54.352;9.074;2023-07-28T21:51:38;5.87;;;4.03;;
21507;SDS011;10915;54.352;9.074;2023-07-28T21:54:04;6.27;;;4.40;;
21507;SDS011;10915;54.352;9.074;2023-07-28T21:56:30;7.03;;;4.17;;
21507;SDS011;10915;54.352;9.074;2023-07-28T21:58:55;6.30;;;4.50;;
21507;SDS011;10915;54.352;9.074;2023-07-28T22:01:21;6.93;;;3.90;;
21507;SDS011;10915;54.352;9.074;2023-07-28T22:03:47;5.97;;;4.07;;
21507;SDS011;10915;54.352;9.074;2023-07-28T22:06:12;5.10;;;4.10;;
21507;SDS011;10915;54.352;9.074;2023-07-28T22:08:38;7.30;;;4.30;;
21507;SDS011;10915;54.352;9.074;2023-07-28T22:11:03;5.47;;;3.80;;
21507;SDS011;10915;54.352;9.074;2023-07-28T22:13:29;5.37;;;3.80;;
21507;SDS011;10915;54.352;9.074;2023-07-28T22:15:56;5.33;;;4.37;;
21507;SDS011;10915;54.352;9.074;2023-07-28T22:18:22;8.30;;;4.40;;
21507;SDS011;10915;54.352;9.074;2023-07-28T22:20:47;6.30;;;4.77;;
21507;SDS011;10915;54.352;9.074;2023-07-28T22:23:13;6.33;;;4.63;;
21507;SDS011;10915;54.352;9.074;2023-07-28T22:25:42;5.30;;;4.23;;
21507;SDS011;10915;54.352;9.074;2023-07-28T22:28:09;5.87;;;4.17;;
21507;SDS011;10915;54.352;9.074;2023-07-28T22:30:36;6.13;;;4.53;;
21507;SDS011;10915;54.352;9.074;2023-07-28T22:33:02;4.80;;;3.80;;
21507;SDS011;10915;54.352;9.074;2023-07-28T22:35:28;7.37;;;4.23;;
21507;SDS011;10915;54.352;9.074;2023-07-28T22:37:54;4.80;;;4.13;;
21507;SDS011;10915;54.352;9.074;2023-07-28T22:40:20;6.50;;;4.63;;
21507;SDS011;10915;54.352;9.074;2023-07-28T22:42:45;6.80;;;4.60;;
21507;SDS011;10915;54.352;9.074;2023-07-28T22:45:11;6.50;;;4.30;;
21507;SDS011;10915;54.352;9.074;2023-07-28T22:47:36;7.97;;;4.50;;
21507;SDS011;10915;54.352;9.074;2023-07-28T22:50:02;7.20;;;4.83;;
21507;SDS011;10915;54.352;9.074;2023-07-28T22:52:29;7.60;;;6.17;;
21507;SDS011;10915;54.352;9.074;2023-07-28T22:54:55;7.10;;;5.37;;
21507;SDS011;10915;54.352;9.074;2023-07-28T22:57:20;9.30;;;6.13;;
21507;SDS011;10915;54.352;9.074;2023-07-28T22:59:46;6.23;;;5.20;;
21507;SDS011;10915;54.352;9.074;2023-07-28T23:02:12;7.17;;;5.63;;
21507;SDS011;10915;54.352;9.074;2023-07-28T23:04:37;6.90;;;5.40;;
21507;SDS011;10915;54.352;9.074;2023-07-28T23:07:03;8.83;;;5.00;;
21507;SDS011;10915;54.352;9.074;2023-07-28T23:09:29;7.50;;;5.67;;
21507;SDS011;10915;54.352;9.074;2023-07-28T23:11:54;7.37;;;5.07;;
21507;SDS011;10915;54.352;9.074;2023-07-28T23:14:20;6.57;;;4.80;;
21507;SDS011;10915;54.352;9.074;2023-07-28T23:16:45;7.83;;;5.30;;
21507;SDS011;10915;54.352;9.074;2023-07-28T23:19:11;6.53;;;4.70;;
21507;SDS011;10915;54.352;9.074;2023-07-28T23:21:37;6.33;;;4.60;;
21507;SDS011;10915;54.352;9.074;2023-07-28T23:24:02;6.87;;;5.00;;
21507;SDS011;10915;54.352;9.074;2023-07-28T23:26:28;6.33;;;5.10;;
21507;SDS011;10915;54.352;9.074;2023-07-28T23:28:55;6.97;;;4.97;;
21507;SDS011;10915;54.352;9.074;2023-07-28T23:31:21;5.83;;;4.50;;
21507;SDS011;10915;54.352;9.074;2023-07-28T23:33:48;5.47;;;4.50;;
21507;SDS011;10915;54.352;9.074;2023-07-28T23:36:14;6.53;;;4.47;;
21507;SDS011;10915;54.352;9.074;2023-07-28T23:38:39;5.53;;;3.70;;
21507;SDS011;10915;54.352;9.074;2023-07-28T23:41:05;6.93;;;4.37;;
21507;SDS011;10915;54.352;9.074;2023-07-28T23:43:31;7.10;;;5.10;;
21507;SDS011;10915;54.352;9.074;2023-07-28T23:45:57;6.43;;;5.30;;
21507;SDS011;10915;54.352;9.074;2023-07-28T23:48:27;8.93;;;5.53;;
21507;SDS011;10915;54.352;9.074;2023-07-28T23:50:56;6.13;;;4.50;;
21507;SDS011;10915;54.352;9.074;2023-07-28T23:53:23;7.37;;;5.00;;
21507;SDS011;10915;54.352;9.074;2023-07-28T23:55:49;7.30;;;5.00;;
21507;SDS011;10915;54.352;9.074;2023-07-28T23:58:15;8.23;;;6.30;;
